Time;durP1;ratioP1;P1;durP2;ratioP2;P2;SDS_P1;SDS_P2;PMS_P1;PMS_P2;Temp;Humidity;BMP_temperature;BMP_pressure;BME280_temperature;BME280_humidity;BME280_pressure;Samples;Min_cycle;Max_cycle;Signal;HPM_P1;HPM_P2
2023/03/28 03:54:18;;;;;;;1.90;1.80;;;-2.30;99.90;;;;;;5108930;23;20235;-66
2023/03/28 03:56:45;;;;;;;1.63;1.52;;;-2.30;99.90;;;;;;4974620;28;20211;-66
2023/03/28 03:59:12;;;;;;;1.90;1.80;;;-2.40;99.90;;;;;;4974396;28;20630;-66
2023/03/28 04:01:40;;;;;;;2.13;2.03;;;-2.30;99.90;;;;;;4974691;28;20208;-65
2023/03/28 04:04:07;;;;;;;1.70;1.70;;;-2.40;99.90;;;;;;4974673;28;20265;-65
2023/03/28 04:06:34;;;;;;;1.70;1.70;;;-2.40;99.90;;;;;;4975125;28;20246;-65
2023/03/28 04:09:01;;;;;;;2.00;1.90;;;-2.50;99.90;;;;;;4974701;28;20207;-65
2023/03/28 04:11:29;;;;;;;2.17;2.08;;;-2.50;99.90;;;;;;4974735;28;20214;-65
2023/03/28 04:13:56;;;;;;;2.17;2.08;;;-2.50;99.90;;;;;;4974505;28;20234;-65
2023/03/28 04:16:22;;;;;;;1.48;1.48;;;-2.50;99.90;;;;;;4974662;28;20206;-65
2023/03/28 04:18:51;;;;;;;1.92;1.67;;;-2.60;99.90;;;;;;4974772;28;20287;-66
2023/03/28 04:21:19;;;;;;;1.80;1.80;;;-2.60;99.90;;;;;;4974473;28;20302;-66
2023/03/28 04:23:47;;;;;;;2.00;1.90;;;-2.60;99.90;;;;;;4974416;28;20231;-65
2023/03/28 04:26:14;;;;;;;1.90;1.90;;;-2.60;99.90;;;;;;4974068;28;20698;-66
2023/03/28 04:28:42;;;;;;;1.73;1.73;;;-2.60;99.90;;;;;;4974672;28;20214;-67
2023/03/28 04:31:10;;;;;;;2.50;2.40;;;-2.60;99.90;;;;;;4974588;28;20203;-68
2023/03/28 04:33:38;;;;;;;2.13;2.00;;;-2.60;99.90;;;;;;4974673;28;20219;-67
2023/03/28 04:36:06;;;;;;;3.97;2.00;;;-2.70;99.90;;;;;;4974875;28;20206;-69
2023/03/28 04:38:35;;;;;;;2.75;2.58;;;-2.70;99.90;;;;;;4976834;28;20567;-67
2023/03/28 04:41:03;;;;;;;2.38;2.28;;;-2.70;99.90;;;;;;4978316;28;20231;-66
2023/03/28 04:43:31;;;;;;;2.00;2.00;;;-2.80;99.90;;;;;;4977722;28;20622;-65
2023/03/28 04:45:59;;;;;;;3.70;3.40;;;-2.80;99.90;;;;;;4978115;28;20227;-65
2023/03/28 04:48:27;;;;;;;2.20;2.20;;;-2.80;99.90;;;;;;4978023;28;20253;-66
2023/03/28 04:50:54;;;;;;;3.10;2.80;;;-2.90;99.90;;;;;;4978059;28;20210;-65
2023/03/28 04:53:21;;;;;;;2.38;2.28;;;-2.90;99.90;;;;;;4978212;28;20234;-66
2023/03/28 04:55:49;;;;;;;2.47;2.40;;;-2.80;99.90;;;;;;4977761;28;20234;-66
2023/03/28 04:58:16;;;;;;;2.30;2.30;;;-2.90;99.90;;;;;;4978230;28;20211;-67
2023/03/28 05:00:44;;;;;;;3.15;2.92;;;-2.80;99.90;;;;;;4977737;28;20210;-66
2023/03/28 05:03:17;;;;;;;2.60;2.30;;;-2.90;99.90;;;;;;4977656;28;20254;-66
2023/03/28 05:05:44;;;;;;;2.40;2.30;;;-2.80;99.90;;;;;;4977739;28;20212;-66
2023/03/28 05:08:12;;;;;;;2.40;2.30;;;-2.90;99.90;;;;;;4977974;28;20324;-64
2023/03/28 05:10:39;;;;;;;2.35;2.25;;;-2.90;99.90;;;;;;4977316;28;20678;-64
2023/03/28 05:13:06;;;;;;;2.35;2.25;;;-2.90;99.90;;;;;;4977462;28;20227;-64
2023/03/28 13:10:17;;;;;;;1.83;1.73;;;7.40;40.50;;;;;;5818579;23;20215;-65
2023/03/28 13:12:56;;;;;;;1.90;1.83;;;7.40;39.90;;;;;;4979562;28;20214;-65
2023/03/28 13:15:32;;;;;;;2.45;2.03;;;7.40;39.20;;;;;;4981605;28;20187;-64
2023/03/28 13:18:33;;;;;;;1.67;1.58;;;7.30;40.60;;;;;;4982490;28;20247;-64
2023/03/28 13:21:03;;;;;;;2.60;1.58;;;7.30;40.60;;;;;;4899910;29;20244;-64
2023/03/28 13:23:34;;;;;;;1.70;1.60;;;7.40;41.00;;;;;;4903441;29;20248;-64
2023/03/28 13:26:03;;;;;;;2.30;2.10;;;7.40;40.80;;;;;;4942667;28;20281;-64
2023/03/28 13:28:35;;;;;;;2.10;1.80;;;7.40;41.00;;;;;;4980502;28;20574;-65
2023/03/28 13:31:12;;;;;;;3.90;2.35;;;7.40;42.20;;;;;;4982188;28;20622;-64
2023/03/28 13:33:45;;;;;;;2.47;2.28;;;7.40;40.90;;;;;;4981332;28;20187;-64
2023/03/28 13:36:27;;;;;;;1.63;1.52;;;7.30;40.90;;;;;;4982421;28;20183;-64
2023/03/28 13:39:20;;;;;;;2.38;2.17;;;7.30;41.80;;;;;;4982504;28;20199;-64
2023/03/28 13:42:00;;;;;;;3.67;2.08;;;7.30;41.00;;;;;;4981319;28;20184;-65
2023/03/28 13:44:39;;;;;;;3.95;2.30;;;7.20;40.90;;;;;;4981277;28;20191;-64
2023/03/28 13:47:06;;;;;;;2.13;2.03;;;7.30;41.80;;;;;;4981858;28;20211;-65
2023/03/28 13:49:43;;;;;;;2.83;2.42;;;7.30;42.00;;;;;;4981677;28;20227;-65
2023/03/28 13:52:15;;;;;;;1.77;1.77;;;7.30;42.70;;;;;;4982115;28;20211;-65
2023/03/28 13:54:42;;;;;;;2.25;2.15;;;7.40;41.80;;;;;;4976883;28;20662;-65
2023/03/28 13:57:16;;;;;;;2.20;2.00;;;7.40;41.40;;;;;;4976647;28;20203;-65
2023/03/28 13:59:51;;;;;;;1.92;1.80;;;7.30;40.80;;;;;;4976932;28;20227;-65
2023/03/28 14:02:20;;;;;;;3.25;1.70;;;7.40;41.90;;;;;;4977045;28;20254;-65
2023/03/28 14:04:52;;;;;;;5.00;2.08;;;7.40;41.20;;;;;;4976794;28;20230;-65
2023/03/28 14:07:24;;;;;;;1.60;1.50;;;7.20;40.30;;;;;;4976736;28;20690;-65
2023/03/28 14:09:52;;;;;;;1.73;1.63;;;7.20;41.20;;;;;;4976618;28;20710;-65
2023/03/28 14:12:20;;;;;;;2.17;1.85;;;7.20;41.30;;;;;;4976595;28;20682;-65
2023/03/28 14:14:50;;;;;;;1.15;1.10;;;7.30;41.80;;;;;;4976439;28;20689;-65
2023/03/28 14:17:21;;;;;;;3.95;2.35;;;7.30;41.70;;;;;;4976810;28;20199;-64
2023/03/28 14:19:51;;;;;;;3.53;2.90;;;7.30;40.90;;;;;;4976621;28;20227;-64
2023/03/28 14:22:20;;;;;;;3.05;2.78;;;7.40;41.30;;;;;;4976616;28;20245;-65
2023/03/28 14:24:51;;;;;;;1.90;1.80;;;7.50;41.70;;;;;;4976399;28;20800;-65
2023/03/28 14:27:28;;;;;;;2.80;1.83;;;7.70;41.10;;;;;;4976145;28;20208;-65
2023/03/28 14:29:58;;;;;;;1.67;1.67;;;7.90;41.30;;;;;;4976397;28;20227;-65
2023/03/28 14:32:29;;;;;;;1.40;1.30;;;8.10;40.30;;;;;;4976393;28;20187;-64
2023/03/28 14:34:56;;;;;;;1.67;1.58;;;8.20;39.30;;;;;;4976323;28;20195;-65
2023/03/28 14:37:23;;;;;;;1.58;1.48;;;8.20;37.40;;;;;;4976298;28;20209;-65
2023/03/28 14:39:51;;;;;;;2.25;1.70;;;8.10;37.80;;;;;;4976144;28;20219;-65
2023/03/28 14:42:19;;;;;;;1.70;1.60;;;8.10;38.10;;;;;;4976316;28;20209;-66
2023/03/28 14:44:50;;;;;;;1.35;1.33;;;7.90;37.10;;;;;;4976055;28;20214;-65
2023/03/28 14:47:26;;;;;;;2.00;1.85;;;7.90;37.70;;;;;;4976100;28;20212;-65
2023/03/28 14:49:54;;;;;;;1.67;1.58;;;7.80;37.50;;;;;;4976047;28;20255;-65
2023/03/28 14:52:28;;;;;;;1.38;1.27;;;7.80;38.20;;;;;;4975989;28;20207;-65
2023/03/28 14:54:56;;;;;;;1.40;1.30;;;7.70;38.00;;;;;;4976101;28;20199;-65
2023/03/28 14:57:23;;;;;;;1.50;1.42;;;7.60;37.00;;;;;;4976000;28;20203;-65
2023/03/28 14:59:51;;;;;;;2.85;1.73;;;7.50;36.90;;;;;;4975368;28;20621;-65
2023/03/28 15:02:25;;;;;;;1.80;1.70;;;7.50;38.00;;;;;;4975869;28;20238;-65
2023/03/28 15:04:53;;;;;;;1.40;1.30;;;7.50;39.00;;;;;;4975963;28;20203;-65
2023/03/28 15:07:23;;;;;;;1.30;1.30;;;7.40;39.40;;;;;;4975933;28;20227;-65
2023/03/28 15:10:05;;;;;;;2.35;1.92;;;7.40;39.90;;;;;;4975824;28;20282;-66
2023/03/28 15:12:32;;;;;;;4.28;2.20;;;7.30;40.10;;;;;;4975436;28;20215;-66
2023/03/28 15:15:00;;;;;;;2.90;1.30;;;7.30;40.10;;;;;;4975694;28;20207;-66
2023/03/28 15:17:29;;;;;;;1.60;1.50;;;7.30;40.50;;;;;;4975624;28;20203;-65
2023/03/28 15:19:58;;;;;;;1.60;1.50;;;7.20;40.80;;;;;;4975069;28;20227;-66
2023/03/28 15:22:28;;;;;;;1.50;1.40;;;7.20;41.00;;;;;;4975699;28;20293;-66
2023/03/28 15:24:57;;;;;;;2.05;1.60;;;7.20;40.80;;;;;;4975498;28;20222;-66
2023/03/28 15:27:28;;;;;;;1.63;1.52;;;7.20;41.20;;;;;;4975368;28;20227;-65
2023/03/28 15:29:55;;;;;;;2.80;1.70;;;7.10;40.20;;;;;;4976234;28;20226;-66
2023/03/28 15:32:22;;;;;;;3.17;2.22;;;7.00;40.00;;;;;;4975303;28;20207;-65
2023/03/28 15:34:57;;;;;;;4.40;2.08;;;7.00;40.60;;;;;;4975332;28;20211;-65
2023/03/28 15:37:26;;;;;;;1.75;1.65;;;7.00;41.00;;;;;;4975054;28;20642;-65
2023/03/28 15:39:53;;;;;;;1.67;1.58;;;7.10;40.40;;;;;;4975438;28;20219;-65
2023/03/28 15:42:34;;;;;;;1.58;1.58;;;7.20;41.50;;;;;;4975523;28;20219;-65
2023/03/28 15:45:22;;;;;;;1.98;1.52;;;7.40;41.90;;;;;;4975199;28;20202;-65
2023/03/28 15:47:50;;;;;;;1.40;1.30;;;7.50;40.60;;;;;;4975368;28;20230;-65
2023/03/28 15:50:26;;;;;;;1.52;1.42;;;7.50;39.30;;;;;;4975221;28;20259;-66
2023/03/28 15:52:57;;;;;;;1.30;1.30;;;7.60;39.00;;;;;;4975082;28;20191;-65
2023/03/28 15:55:27;;;;;;;1.83;1.27;;;7.70;38.80;;;;;;4975091;28;20191;-66
2023/03/28 15:57:55;;;;;;;1.55;1.50;;;7.70;38.40;;;;;;4974774;28;20290;-66
2023/03/28 16:00:40;;;;;;;1.15;1.13;;;7.70;38.10;;;;;;4975075;28;20590;-66
2023/03/28 16:03:31;;;;;;;1.25;1.17;;;7.60;38.00;;;;;;4974805;28;20552;-66
2023/03/28 16:06:11;;;;;;;1.50;1.40;;;7.50;38.00;;;;;;4975066;28;20283;-66
2023/03/28 16:08:40;;;;;;;4.03;1.70;;;7.40;38.70;;;;;;4975047;28;20199;-66
2023/03/28 16:11:16;;;;;;;1.50;1.48;;;7.30;39.60;;;;;;4974834;28;20227;-66
2023/03/28 16:13:43;;;;;;;1.98;1.88;;;7.10;40.10;;;;;;4974586;28;20207;-66
2023/03/28 16:16:13;;;;;;;3.05;2.28;;;7.00;40.60;;;;;;4974972;28;20211;-66
2023/03/28 16:18:40;;;;;;;2.20;2.10;;;6.90;41.60;;;;;;4974914;28;20199;-66
2023/03/28 16:21:10;;;;;;;1.90;1.80;;;6.80;42.20;;;;;;4975016;28;20223;-66
2023/03/28 16:23:37;;;;;;;2.03;1.92;;;6.70;42.30;;;;;;4975793;28;20195;-66
2023/03/28 16:26:05;;;;;;;2.38;1.73;;;6.70;43.00;;;;;;4974892;28;20203;-67
2023/03/28 16:28:32;;;;;;;1.70;1.63;;;6.60;43.70;;;;;;4975002;28;20207;-67
2023/03/28 16:30:59;;;;;;;1.30;1.30;;;6.50;44.70;;;;;;4974692;28;20330;-66
2023/03/28 16:33:25;;;;;;;1.50;1.40;;;6.50;45.30;;;;;;4975790;28;20569;-66
2023/03/28 16:35:53;;;;;;;1.60;1.50;;;6.40;46.10;;;;;;4978930;28;20203;-66
2023/03/28 16:38:21;;;;;;;2.05;1.70;;;6.40;46.70;;;;;;4978617;28;20200;-66
2023/03/28 16:40:48;;;;;;;1.55;1.50;;;6.40;45.60;;;;;;4978337;28;20224;-66
2023/03/28 16:43:15;;;;;;;2.30;2.10;;;6.40;45.40;;;;;;4978563;28;20563;-65
2023/03/28 16:45:42;;;;;;;5.15;3.17;;;6.40;46.10;;;;;;4978463;28;20230;-66
2023/03/28 16:48:08;;;;;;;3.15;2.85;;;6.30;46.70;;;;;;4978431;28;20207;-66
2023/03/28 16:50:35;;;;;;;4.88;2.35;;;6.30;47.50;;;;;;4978361;28;20620;-66
2023/03/28 16:53:03;;;;;;;2.45;2.25;;;6.20;48.10;;;;;;4978472;28;20200;-66
2023/03/28 16:55:31;;;;;;;2.65;2.45;;;6.20;48.00;;;;;;4978383;28;20228;-66
2023/03/28 16:57:58;;;;;;;2.40;2.20;;;6.20;48.40;;;;;;4978303;28;20203;-66
2023/03/28 17:00:25;;;;;;;2.35;2.15;;;6.20;48.70;;;;;;4978303;28;20310;-66
2023/03/28 17:02:51;;;;;;;1.95;1.85;;;6.10;49.50;;;;;;4978382;28;20218;-66
2023/03/28 17:05:18;;;;;;;2.40;2.20;;;6.00;50.50;;;;;;4978100;28;20208;-66
2023/03/28 17:07:45;;;;;;;2.15;1.95;;;5.90;51.60;;;;;;4977624;28;20749;-65
2023/03/28 17:10:12;;;;;;;1.80;1.65;;;5.90;52.50;;;;;;4977905;28;20255;-65
2023/03/28 17:12:40;;;;;;;1.67;1.58;;;5.80;54.00;;;;;;4977936;28;20234;-66
2023/03/28 17:15:08;;;;;;;1.50;1.40;;;5.70;56.10;;;;;;4977818;28;20204;-66
2023/03/28 17:17:35;;;;;;;1.10;1.10;;;5.60;58.80;;;;;;4977957;28;20222;-66
2023/03/28 17:20:02;;;;;;;1.27;1.20;;;5.60;63.20;;;;;;4977610;28;20604;-66
2023/03/28 17:22:29;;;;;;;1.00;1.00;;;5.60;66.50;;;;;;4977928;28;20255;-66
2023/03/28 17:24:56;;;;;;;1.40;1.35;;;;;;;;;;4977369;28;20683;-66
2023/03/28 17:27:24;;;;;;;1.45;1.10;;;;;;;;;;4977664;28;20226;-66
2023/03/28 17:29:52;;;;;;;1.20;1.20;;;;;;;;;;4977643;28;20219;-66
2023/03/28 17:32:19;;;;;;;0.93;0.80;;;5.50;69.30;;;;;;4977572;28;20203;-66
2023/03/28 17:34:46;;;;;;;0.90;0.90;;;5.20;82.50;;;;;;4977454;28;20295;-66
2023/03/28 17:37:12;;;;;;;4.50;2.83;;;5.20;85.50;;;;;;4977456;28;20200;-66
2023/03/28 17:39:39;;;;;;;4.38;3.13;;;5.10;88.40;;;;;;4976989;28;20223;-66
2023/03/28 17:42:07;;;;;;;4.22;3.78;;;5.10;90.50;;;;;;4976998;28;20561;-66
2023/03/28 17:44:34;;;;;;;4.45;3.55;;;5.00;91.90;;;;;;4976930;28;20242;-66
2023/03/28 17:47:02;;;;;;;4.82;3.75;;;5.00;93.60;;;;;;4977437;28;20219;-65
2023/03/28 17:49:29;;;;;;;3.90;3.55;;;4.90;95.70;;;;;;4977121;28;20224;-64
2023/03/28 17:51:56;;;;;;;2.92;2.75;;;4.90;97.00;;;;;;4977144;28;20207;-65
2023/03/28 17:54:23;;;;;;;2.85;2.70;;;4.90;97.90;;;;;;4977013;28;20214;-65
2023/03/28 17:56:50;;;;;;;3.95;3.10;;;4.80;99.00;;;;;;4977007;28;20286;-65
2023/03/28 17:59:17;;;;;;;3.88;3.58;;;4.80;99.90;;;;;;4976652;28;20876;-66
2023/03/28 18:01:44;;;;;;;3.58;3.28;;;4.80;99.90;;;;;;4976672;28;20637;-66
2023/03/28 18:04:12;;;;;;;3.30;3.03;;;4.70;99.90;;;;;;4976719;28;20204;-66
2023/03/28 18:06:40;;;;;;;2.95;2.60;;;4.70;99.90;;;;;;4976819;28;20199;-65
2023/03/28 18:09:07;;;;;;;2.67;2.58;;;4.70;99.90;;;;;;4976715;28;20207;-66
2023/03/28 18:11:34;;;;;;;2.92;2.72;;;4.70;99.90;;;;;;4976843;28;20213;-65
2023/03/28 18:14:01;;;;;;;2.30;2.10;;;4.60;99.90;;;;;;4976851;28;20246;-64
2023/03/28 18:16:28;;;;;;;2.35;2.25;;;4.60;99.90;;;;;;4976810;28;20203;-64
2023/03/28 18:18:56;;;;;;;2.03;1.98;;;4.60;99.90;;;;;;4976816;28;20200;-65
2023/03/28 18:21:24;;;;;;;1.70;1.70;;;4.60;99.90;;;;;;4976737;28;20214;-65
2023/03/28 18:23:51;;;;;;;1.90;1.80;;;4.60;99.90;;;;;;4976714;28;20199;-65
2023/03/28 18:26:17;;;;;;;1.58;1.50;;;4.60;99.90;;;;;;4976609;28;20319;-65
2023/03/28 18:28:44;;;;;;;1.50;1.50;;;4.60;99.90;;;;;;4976601;28;20250;-65
2023/03/28 18:31:12;;;;;;;1.85;1.75;;;4.60;99.90;;;;;;4976432;28;20223;-64
2023/03/28 18:33:40;;;;;;;1.77;1.60;;;4.60;99.90;;;;;;4976595;28;20230;-66
2023/03/28 18:36:07;;;;;;;2.60;1.83;;;4.60;99.90;;;;;;4976426;28;20659;-64
2023/03/28 18:38:37;;;;;;;1.75;1.65;;;4.60;99.90;;;;;;4976200;28;20203;-64
2023/03/28 18:41:04;;;;;;;1.40;1.40;;;4.60;99.90;;;;;;4976283;28;20226;-66
2023/03/28 18:43:30;;;;;;;1.95;1.40;;;4.60;99.90;;;;;;4976233;28;20203;-65
2023/03/28 18:45:59;;;;;;;2.25;2.13;;;4.60;99.90;;;;;;4977725;28;20544;-66
2023/03/28 18:48:26;;;;;;;2.13;2.03;;;4.60;99.90;;;;;;4978636;28;20219;-66
2023/03/28 18:50:53;;;;;;;1.90;1.90;;;4.60;99.90;;;;;;4977495;28;20702;-64
2023/03/28 18:53:21;;;;;;;2.40;2.30;;;;;;;;;;4978728;28;20570;-65
2023/03/28 18:55:50;;;;;;;2.28;2.17;;;;;;;;;;4979351;28;20258;-66
2023/03/28 18:58:17;;;;;;;2.72;2.30;;;;;;;;;;4978977;28;20582;-65
2023/03/28 19:00:44;;;;;;;2.90;2.70;;;;;;;;;;4975960;28;20278;-65
2023/03/28 19:03:16;;;;;;;2.42;2.33;;;;;;;;;;4976182;28;20210;-65
2023/03/28 19:05:42;;;;;;;3.13;2.67;;;4.60;99.90;;;;;;4976332;28;20199;-65
2023/03/28 19:08:09;;;;;;;2.25;2.15;;;4.60;99.90;;;;;;4975604;28;20697;-65
2023/03/28 19:10:36;;;;;;;2.20;1.98;;;4.50;99.90;;;;;;4975714;28;20223;-65
2023/03/28 19:13:04;;;;;;;2.05;1.95;;;4.50;99.90;;;;;;4975385;28;20265;-65
2023/03/28 19:15:31;;;;;;;1.88;1.83;;;4.50;99.90;;;;;;4975553;28;20207;-66
2023/03/28 19:17:58;;;;;;;2.10;2.00;;;4.40;99.90;;;;;;4975530;28;20203;-65
2023/03/28 19:20:25;;;;;;;2.05;2.00;;;4.40;99.90;;;;;;4975466;28;20698;-65
2023/03/28 19:22:52;;;;;;;3.30;3.00;;;4.40;99.90;;;;;;4975585;28;20566;-65
2023/03/28 19:25:19;;;;;;;2.97;2.40;;;4.40;99.90;;;;;;4975393;28;20234;-65
2023/03/28 19:27:49;;;;;;;3.08;2.78;;;4.40;99.90;;;;;;4975289;28;20226;-65
2023/03/28 19:30:17;;;;;;;2.50;2.40;;;4.40;99.90;;;;;;4975427;28;20286;-65
2023/03/28 19:32:44;;;;;;;2.70;2.55;;;4.40;99.90;;;;;;4975464;28;20211;-65
2023/03/28 19:35:10;;;;;;;2.45;2.35;;;4.40;99.90;;;;;;4975501;28;20215;-65
2023/03/28 19:37:37;;;;;;;2.20;2.10;;;4.40;99.90;;;;;;4975529;28;20206;-65
2023/03/28 19:40:07;;;;;;;2.05;1.95;;;4.40;99.90;;;;;;4975002;28;20715;-65
2023/03/28 19:42:35;;;;;;;1.80;1.70;;;4.40;99.90;;;;;;4975320;28;20302;-65
2023/03/28 19:45:01;;;;;;;2.55;2.08;;;4.40;99.90;;;;;;4975198;28;20307;-65
2023/03/28 19:47:29;;;;;;;2.20;2.10;;;4.40;99.90;;;;;;4974589;28;20587;-64
2023/03/28 19:49:57;;;;;;;2.70;2.50;;;4.40;99.90;;;;;;4974933;28;20227;-65
2023/03/28 19:52:23;;;;;;;2.53;2.40;;;4.40;99.90;;;;;;4974998;28;20207;-64
2023/03/28 19:54:50;;;;;;;2.30;2.10;;;4.40;99.90;;;;;;4975614;28;20207;-64
2023/03/28 19:57:17;;;;;;;2.28;2.17;;;4.40;99.90;;;;;;4975008;28;20208;-66
2023/03/28 19:59:44;;;;;;;1.92;1.83;;;4.40;99.90;;;;;;4974808;28;20269;-64
2023/03/28 20:02:11;;;;;;;1.95;1.85;;;4.40;99.90;;;;;;4975106;28;20571;-65
2023/03/28 20:04:39;;;;;;;2.05;1.83;;;4.40;99.90;;;;;;4975171;28;20347;-65
2023/03/28 20:07:05;;;;;;;1.60;1.50;;;4.40;99.90;;;;;;4975097;28;20204;-65
2023/03/28 20:09:32;;;;;;;1.95;1.85;;;4.30;99.90;;;;;;4975292;28;20242;-65
2023/03/28 20:11:59;;;;;;;1.25;1.25;;;4.30;99.90;;;;;;4974992;28;20215;-65
2023/03/28 20:14:26;;;;;;;1.60;1.60;;;4.30;99.90;;;;;;4975199;28;20209;-65
2023/03/28 20:16:53;;;;;;;2.20;1.70;;;4.30;99.90;;;;;;4975000;28;20238;-65
2023/03/28 20:19:21;;;;;;;1.75;1.70;;;4.30;99.90;;;;;;4974927;28;20262;-65
2023/03/28 20:21:49;;;;;;;2.30;1.63;;;4.20;99.90;;;;;;4974883;28;20203;-66
2023/03/28 20:24:17;;;;;;;1.20;1.20;;;4.20;99.90;;;;;;4974834;28;20204;-63
2023/03/28 20:26:44;;;;;;;1.50;1.40;;;4.20;99.90;;;;;;4974741;28;20227;-64
2023/03/28 20:29:12;;;;;;;1.17;1.17;;;4.20;99.90;;;;;;4974393;28;20215;-65
2023/03/28 20:31:39;;;;;;;1.45;1.38;;;4.20;99.90;;;;;;4974672;28;20290;-65
2023/03/28 20:34:06;;;;;;;1.63;1.52;;;4.20;99.90;;;;;;4974840;28;20211;-65
2023/03/28 20:36:33;;;;;;;4.28;2.30;;;4.20;99.90;;;;;;4974711;28;20199;-65
2023/03/28 20:39:02;;;;;;;2.65;2.45;;;4.10;99.90;;;;;;4974266;28;20565;-65
2023/03/28 20:41:29;;;;;;;2.45;2.28;;;4.20;99.90;;;;;;4974603;28;20565;-65
2023/03/28 20:44:02;;;;;;;3.42;3.10;;;4.10;99.90;;;;;;4974753;28;20218;-66
2023/03/28 20:46:30;;;;;;;3.50;3.20;;;4.10;99.90;;;;;;4974944;28;20258;-66
2023/03/28 20:48:59;;;;;;;2.90;2.70;;;4.10;99.90;;;;;;4974451;28;20306;-66
2023/03/28 20:51:28;;;;;;;2.72;2.53;;;4.00;99.90;;;;;;4974250;28;20623;-66
2023/03/28 20:53:57;;;;;;;2.95;2.75;;;4.00;99.90;;;;;;4974412;28;20199;-66
2023/03/28 20:56:27;;;;;;;2.05;1.95;;;4.00;99.90;;;;;;4974552;28;20207;-66
2023/03/28 20:58:57;;;;;;;2.05;1.95;;;4.00;99.90;;;;;;4974499;28;20192;-66
2023/03/28 21:01:28;;;;;;;1.48;1.48;;;4.00;99.90;;;;;;4974205;28;20737;-66
2023/03/28 21:03:57;;;;;;;1.70;1.70;;;4.00;99.90;;;;;;4974970;28;20187;-66
2023/03/28 21:06:25;;;;;;;1.30;1.30;;;4.00;99.90;;;;;;4974485;28;20207;-66
2023/03/28 21:08:53;;;;;;;1.60;1.50;;;4.00;99.90;;;;;;4974426;28;20605;-66
2023/03/28 21:11:24;;;;;;;1.10;1.10;;;4.00;99.90;;;;;;4974340;28;20270;-66
2023/03/28 21:13:53;;;;;;;1.38;1.38;;;4.00;99.90;;;;;;4973909;28;20211;-66
2023/03/28 21:16:20;;;;;;;1.30;1.13;;;4.00;99.90;;;;;;4974235;28;20200;-66
2023/03/28 21:18:48;;;;;;;1.38;1.38;;;4.00;99.90;;;;;;4974174;28;20202;-66
2023/03/28 21:21:17;;;;;;;1.10;1.10;;;4.00;99.90;;;;;;4977106;28;20721;-66
2023/03/28 21:23:45;;;;;;;0.95;0.95;;;4.00;99.90;;;;;;4977672;28;20207;-66
2023/03/28 21:26:14;;;;;;;1.45;1.38;;;4.00;99.90;;;;;;4977303;28;20700;-66
2023/03/28 21:28:41;;;;;;;1.60;1.50;;;3.90;99.90;;;;;;4977467;28;20310;-66
2023/03/28 21:31:12;;;;;;;1.83;1.80;;;3.90;99.90;;;;;;4977441;28;20227;-66
2023/03/28 21:33:41;;;;;;;2.10;2.00;;;3.90;99.90;;;;;;4977545;28;20282;-66
